Аэропорт: Гумрак. Волгоград

ICAO: URWW

METAR:
2020-10-19 22:00:00
URWW 192200Z 32003MPS 9999 -SHRA BKN060CB 07/06 Q1019 R06/290060 TEMPO 34008G15MPS 1000 TSRAGR BKN003 BKN020CB
METAR:
2020-10-19 19:57:00
TAF URWW 191957Z 1921/2006 33003G11MPS 3100 -SHRA BR BKN011 BKN020CB TEMPO 1921/2001 36003G10MPS PROB40 TEMPO 1921/2001 1000 TSRAGR BKN004 BKN020CB TEMPO 2001/2006 30005G11MPS